Time;durP1;ratioP1;P1;durP2;ratioP2;P2;SDS_P1;SDS_P2;PMS_P1;PMS_P2;Temp;Humidity;BMP_temperature;BMP_pressure;BME280_temperature;BME280_humidity;BME280_pressure;Samples;Min_cycle;Max_cycle;Signal;HPM_P1;HPM_P2
2021/05/03 00:02:26;;;;;;;2.70;2.20;;;;;;;4.25;86.26;100014.19;1754480;80;25830;-76
2021/05/03 00:04:54;;;;;;;2.83;2.35;;;;;;;4.25;86.21;100012.86;1788231;80;25762;-75
2021/05/03 00:07:21;;;;;;;3.27;2.98;;;;;;;4.27;86.30;100018.83;1787959;80;25705;-75
2021/05/03 00:09:48;;;;;;;3.12;2.83;;;;;;;4.27;86.29;100025.95;1729030;80;26425;-74
2021/05/03 00:12:16;;;;;;;3.35;2.75;;;;;;;4.27;86.29;100026.78;1754379;80;27617;-75
2021/05/03 00:14:43;;;;;;;4.28;2.77;;;;;;;4.30;86.45;100029.61;1761079;80;25830;-76
2021/05/03 00:17:11;;;;;;;3.58;3.22;;;;;;;4.30;86.30;100035.72;1788277;80;25846;-77
2021/05/03 00:19:38;;;;;;;3.95;3.30;;;;;;;4.31;86.30;100037.89;1706314;80;25845;-76
2021/05/03 00:22:05;;;;;;;4.78;3.20;;;;;;;4.32;86.43;100039.56;1758167;79;25736;-75
2021/05/03 00:24:33;;;;;;;3.35;2.67;;;;;;;4.32;86.42;100032.94;1770087;79;27424;-76
2021/05/03 00:27:01;;;;;;;4.00;3.20;;;;;;;4.34;86.46;100043.69;1799214;79;26384;-75
2021/05/03 00:29:28;;;;;;;3.52;2.90;;;;;;;4.36;86.38;100044.36;1719232;82;26465;-75
2021/05/03 00:31:56;;;;;;;3.77;3.27;;;;;;;4.38;86.25;100053.02;1702370;82;25859;-75
2021/05/03 00:34:23;;;;;;;4.10;3.42;;;;;;;4.38;86.18;100050.36;1699721;83;26515;-75
2021/05/03 00:36:50;;;;;;;4.10;3.40;;;;;;;4.36;86.05;100048.33;1718757;83;27605;-75
2021/05/03 00:39:18;;;;;;;4.12;2.35;;;;;;;4.38;86.02;100068.08;1662716;83;26124;-75
2021/05/03 00:41:45;;;;;;;4.62;2.77;;;;;;;4.39;85.96;100065.75;1661654;84;26559;-76
2021/05/03 00:44:12;;;;;;;4.35;3.40;;;;;;;4.40;85.84;100064.77;1672508;84;25802;-75
2021/05/03 00:46:40;;;;;;;3.47;2.67;;;;;;;4.41;85.88;100065.09;1695278;84;25780;-76
2021/05/03 00:49:08;;;;;;;3.20;2.90;;;;;;;4.41;85.57;100067.74;1662144;84;27530;-76
2021/05/03 00:51:35;;;;;;;2.67;2.35;;;;;;;4.42;85.65;100066.28;1661709;84;26082;-75
2021/05/03 00:54:03;;;;;;;3.75;3.35;;;;;;;4.43;85.52;100070.58;1650100;84;25774;-76
2021/05/03 00:56:31;;;;;;;2.50;2.00;;;;;;;4.45;85.49;100070.41;1649974;84;25834;-76
2021/05/03 00:58:58;;;;;;;2.90;2.60;;;;;;;4.44;85.08;100064.78;1685113;84;26497;-74
2021/05/03 01:01:25;;;;;;;2.92;2.58;;;;;;;4.43;85.31;100071.91;1661698;84;27724;-75
2021/05/03 01:03:52;;;;;;;2.95;2.50;;;;;;;4.45;85.16;100078.36;1672648;84;25925;-75
2021/05/03 01:06:20;;;;;;;4.15;2.50;;;;;;;4.45;85.17;100079.69;1662157;84;25729;-75
2021/05/03 01:08:47;;;;;;;4.45;2.42;;;;;;;4.44;85.07;100079.37;1662418;83;26160;-76
2021/05/03 01:11:15;;;;;;;4.40;2.65;;;;;;;4.44;85.18;100085.51;1685008;84;25363;-75
2021/05/03 01:13:42;;;;;;;4.10;2.22;;;;;;;4.46;85.07;100090.64;1672377;83;28129;-76
2021/05/03 01:16:09;;;;;;;2.45;2.25;;;;;;;4.47;85.07;100087.83;1695245;84;26509;-76
2021/05/03 01:18:37;;;;;;;4.05;2.72;;;;;;;4.47;85.13;100089.67;1661886;84;25383;-75
2021/05/03 01:21:06;;;;;;;3.67;2.70;;;;;;;4.46;84.94;100092.81;1684862;84;25974;-74
2021/05/03 01:23:34;;;;;;;3.02;2.72;;;;;;;4.48;85.11;100097.45;1694188;84;25931;-75
2021/05/03 01:26:01;;;;;;;4.85;2.72;;;;;;;4.48;84.91;100097.45;1693459;84;27513;-76
2021/05/03 01:28:29;;;;;;;5.65;2.58;;;;;;;4.48;84.95;100094.80;1673445;84;26437;-75
2021/05/03 01:30:59;;;;;;;3.22;2.92;;;;;;;4.46;84.77;100102.09;1661446;84;26360;-75
2021/05/03 01:33:26;;;;;;;5.45;4.17;;;;;;;4.46;84.85;100092.81;1671056;84;26113;-75
2021/05/03 01:35:54;;;;;;;4.72;3.22;;;;;;;4.46;84.84;100093.30;1689115;84;25973;-76
2021/05/03 01:38:21;;;;;;;5.08;3.60;;;;;;;4.46;84.92;100107.39;1688563;82;28467;-76
2021/05/03 01:40:49;;;;;;;4.80;3.55;;;;;;;4.45;85.03;100104.39;1700793;83;25926;-75
2021/05/03 01:43:22;;;;;;;3.85;3.37;;;;;;;4.45;84.98;100115.00;1700827;83;26469;-76
2021/05/03 01:45:52;;;;;;;4.28;3.45;;;;;;;4.46;85.07;100114.02;1719810;83;26188;-75
2021/05/03 01:48:30;;;;;;;3.70;3.17;;;;;;;4.47;85.22;100120.16;1689991;83;25775;-77
2021/05/03 01:50:59;;;;;;;3.85;3.40;;;;;;;4.49;85.18;100126.14;1701021;83;27584;-76
2021/05/03 01:53:27;;;;;;;4.50;3.62;;;;;;;4.49;85.22;100131.45;1700711;83;25734;-76
2021/05/03 01:55:57;;;;;;;3.70;3.17;;;;;;;4.49;85.17;100126.95;1689408;83;25845;-76
2021/05/03 01:58:26;;;;;;;4.10;3.37;;;;;;;4.49;85.16;100136.23;1701340;83;25894;-75
2021/05/03 02:00:57;;;;;;;4.45;3.42;;;;;;;4.49;85.16;100134.90;1700878;83;25865;-76
2021/05/03 02:03:27;;;;;;;6.20;3.62;;;;;;;4.50;85.25;100145.86;1701244;83;27410;-75
2021/05/03 02:05:55;;;;;;;5.10;3.30;;;;;;;4.52;85.15;100141.71;1719923;83;25721;-75
2021/05/03 02:08:23;;;;;;;3.77;3.47;;;;;;;4.53;85.12;100146.05;1689434;83;25814;-76
2021/05/03 02:10:53;;;;;;;6.37;4.50;;;;;;;4.54;84.98;100145.03;1701013;83;26377;-74
2021/05/03 02:13:22;;;;;;;5.78;3.45;;;;;;;4.53;85.04;100145.52;1700940;83;25761;-75
2021/05/03 02:15:51;;;;;;;3.95;3.35;;;;;;;4.55;85.05;100143.58;1700910;83;27281;-75
2021/05/03 02:18:20;;;;;;;5.03;3.60;;;;;;;4.55;84.83;100140.08;1685371;83;26179;-75
2021/05/03 02:20:47;;;;;;;7.30;3.10;;;;;;;4.55;84.67;100136.94;1693592;84;25917;-75
2021/05/03 02:23:15;;;;;;;4.75;3.98;;;;;;;4.54;84.68;100137.92;1702453;83;25792;-75
2021/05/03 02:25:43;;;;;;;5.62;3.70;;;;;;;4.53;84.56;100143.39;1691009;83;26374;-75
2021/05/03 02:28:12;;;;;;;6.10;3.58;;;;;;;4.54;84.62;100147.20;1682487;84;27549;-75
2021/05/03 02:30:40;;;;;;;4.58;3.60;;;;;;;4.53;84.46;100149.50;1665104;80;26039;-75
2021/05/03 02:33:08;;;;;;;5.53;3.72;;;;;;;4.54;84.57;100147.69;1667878;84;26432;-75
2021/05/03 02:35:36;;;;;;;3.75;2.92;;;;;;;4.54;84.56;100151.18;1688376;84;25751;-75
2021/05/03 02:38:08;;;;;;;5.90;3.02;;;;;;;4.54;84.38;100157.81;1614442;87;26174;-75
2021/05/03 02:40:35;;;;;;;3.95;3.55;;;;;;;4.52;84.27;100161.61;1666780;85;26844;-76
2021/05/03 02:43:04;;;;;;;5.97;3.17;;;;;;;4.50;84.43;100168.41;1689886;83;26026;-75
2021/05/03 02:45:32;;;;;;;6.45;3.50;;;;;;;4.49;84.34;100168.05;1684923;85;25868;-75
2021/05/03 02:48:00;;;;;;;4.15;2.90;;;;;;;4.51;84.22;100174.02;1666627;85;25796;-75
2021/05/03 02:50:29;;;;;;;6.50;3.85;;;;;;;4.52;84.21;100177.52;1666430;85;25775;-76
2021/05/03 02:52:56;;;;;;;4.58;3.02;;;;;;;4.54;84.15;100180.36;1689906;84;27342;-74
2021/05/03 02:55:24;;;;;;;6.78;3.08;;;;;;;4.55;83.95;100191.31;1684445;85;26170;-76
2021/05/03 02:57:52;;;;;;;2.85;2.52;;;;;;;4.54;84.05;100198.08;1666679;85;25842;-75
2021/05/03 03:00:32;;;;;;;3.22;2.80;;;;;;;4.55;84.03;100194.45;1666712;85;25831;-75
2021/05/03 03:03:01;;;;;;;4.15;2.70;;;;;;;4.56;84.04;100199.59;1684813;85;26050;-75
2021/05/03 03:05:29;;;;;;;4.67;2.70;;;;;;;4.55;83.79;100195.78;1690053;84;27543;-75
2021/05/03 03:08:04;;;;;;;4.62;2.80;;;;;;;4.53;83.82;100201.22;1666604;84;26135;-75
2021/05/03 03:10:32;;;;;;;4.97;2.75;;;;;;;4.54;83.78;100204.71;1689683;84;26478;-76
2021/05/03 03:13:02;;;;;;;5.12;3.37;;;;;;;4.53;83.80;100207.05;1684716;85;25744;-74
2021/05/03 03:15:32;;;;;;;3.67;2.62;;;;;;;4.54;83.94;100210.02;1689843;84;26436;-74
2021/05/03 03:18:01;;;;;;;3.22;2.67;;;;;;;4.53;83.67;100220.30;1666781;85;28432;-74
2021/05/03 03:20:29;;;;;;;5.65;2.40;;;;;;;4.52;83.51;100211.51;1689567;84;25908;-75
2021/05/03 03:22:56;;;;;;;2.92;2.47;;;;;;;4.52;83.54;100219.47;1703398;83;25767;-75
2021/05/03 03:25:24;;;;;;;3.10;2.17;;;;;;;4.53;83.48;100220.30;1673050;83;26415;-76
2021/05/03 03:27:51;;;;;;;3.25;2.15;;;;;;;4.53;82.92;100222.95;1672971;83;26096;-76
2021/05/03 03:30:19;;;;;;;3.12;1.72;;;;;;;4.55;82.69;100227.61;1687273;83;27337;-75
2021/05/03 03:32:47;;;;;;;3.02;1.60;;;;;;;4.56;82.87;100238.05;1714193;83;25703;-75
2021/05/03 03:35:19;;;;;;;1.98;1.70;;;;;;;4.58;82.41;100241.86;1670803;83;25733;-76
2021/05/03 03:37:48;;;;;;;4.35;2.50;;;;;;;4.58;82.25;100238.72;1685457;84;26075;-75
2021/05/03 03:40:18;;;;;;;4.12;2.27;;;;;;;4.63;82.22;100240.91;1669538;84;26191;-75
2021/05/03 03:42:46;;;;;;;4.10;2.15;;;;;;;4.63;81.53;100240.42;1692038;84;28424;-75
2021/05/03 03:45:15;;;;;;;3.67;2.00;;;;;;;4.65;81.71;100245.08;1655022;84;26514;-75
2021/05/03 03:47:43;;;;;;;2.90;2.17;;;;;;;4.67;81.86;100253.70;1669852;84;25862;-75
2021/05/03 03:50:11;;;;;;;3.90;2.00;;;;;;;4.68;81.84;100254.55;1637961;86;25824;-75
2021/05/03 03:52:39;;;;;;;2.70;2.00;;;;;;;4.73;81.78;100259.38;1685071;84;26020;-74
2021/05/03 03:55:10;;;;;;;2.22;2.02;;;;;;;4.73;81.69;100262.84;1642950;85;28481;-75
2021/05/03 03:57:37;;;;;;;3.25;1.80;;;;;;;4.75;81.59;100266.69;1610672;85;26477;-75
2021/05/03 04:00:07;;;;;;;3.37;2.30;;;;;;;4.76;81.50;100266.52;1659047;84;25758;-75
2021/05/03 04:02:36;;;;;;;2.65;2.00;;;;;;;4.77;81.40;100278.78;1667007;85;26304;-76
2021/05/03 04:08:01;;;;;;;4.53;2.30;;;;;;;4.80;81.54;100277.64;1652009;85;27684;-76
2021/05/03 04:21:28;;;;;;;3.55;2.60;;;;;;;4.85;81.22;100278.84;1688149;83;28292;-76
2021/05/03 04:24:07;;;;;;;4.17;2.55;;;;;;;4.87;81.25;100278.68;1720938;83;26398;-76
2021/05/03 04:26:27;;;;;;;4.17;2.47;;;;;;;4.90;81.36;100279.70;1662522;83;25872;-74
2021/05/03 04:28:55;;;;;;;5.00;2.47;;;;;;;4.94;81.20;100289.82;1695548;81;25864;-75
2021/05/03 04:31:23;;;;;;;6.90;3.40;;;;;;;4.98;81.31;100294.34;1687215;83;25899;-76
2021/05/03 04:33:51;;;;;;;4.10;3.15;;;;;;;5.02;81.08;100293.02;1720579;83;27617;-76
2021/05/03 04:36:19;;;;;;;4.20;3.15;;;;;;;5.05;81.02;100290.03;1693744;83;26103;-75
2021/05/03 04:38:48;;;;;;;5.47;2.85;;;;;;;5.10;80.95;100298.37;1698448;83;25801;-75
2021/05/03 04:41:15;;;;;;;7.25;5.22;;;;;;;5.14;81.13;100299.22;1697902;83;26652;-76
2021/05/03 04:43:42;;;;;;;7.47;4.28;;;;;;;5.19;81.04;100304.89;1683872;83;26189;-75
2021/05/03 04:46:10;;;;;;;10.58;8.28;;;;;;;5.23;80.82;100302.73;1676051;83;27552;-75
2021/05/03 04:48:37;;;;;;;7.10;4.58;;;;;;;5.27;80.75;100308.06;1695458;83;25799;-75
2021/05/03 04:51:05;;;;;;;7.55;4.30;;;;;;;5.31;81.03;100306.26;1669698;83;26009;-75
2021/05/03 04:53:33;;;;;;;5.25;3.10;;;;;;;5.36;80.36;100309.77;1696124;84;25721;-76
2021/05/03 04:56:04;;;;;;;3.70;2.85;;;;;;;5.38;80.54;100312.61;1676926;84;26088;-74
2021/05/03 04:58:32;;;;;;;4.95;3.60;;;;;;;5.42;80.60;100316.60;1688619;83;27614;-75
2021/05/03 05:00:59;;;;;;;4.28;2.92;;;;;;;5.46;80.30;100312.63;1678220;83;25936;-75
2021/05/03 05:03:27;;;;;;;4.72;2.75;;;;;;;5.52;80.24;100314.31;1693623;84;26254;-76
2021/05/03 05:05:54;;;;;;;3.50;2.58;;;;;;;5.55;80.10;100318.80;1692511;83;25811;-75
2021/05/03 05:08:23;;;;;;;4.65;2.55;;;;;;;5.58;79.91;100323.77;1675203;83;26244;-75
2021/05/03 05:10:50;;;;;;;4.08;2.67;;;;;;;5.61;80.18;100323.46;1671766;84;27991;-76
2021/05/03 05:13:18;;;;;;;4.85;3.08;;;;;;;5.65;79.59;100330.11;1677071;83;26047;-76
2021/05/03 05:15:45;;;;;;;8.08;5.05;;;;;;;5.68;79.96;100331.62;1610762;85;26145;-75
2021/05/03 05:18:13;;;;;;;7.62;3.90;;;;;;;5.73;80.11;100330.12;1623830;86;26422;-76
2021/05/03 05:20:41;;;;;;;6.12;3.27;;;;;;;5.75;79.46;100329.47;1643099;86;25752;-75
2021/05/03 05:23:09;;;;;;;5.58;3.50;;;;;;;5.76;79.09;100339.12;1665155;86;28457;-76
2021/05/03 05:25:36;;;;;;;6.33;4.28;;;;;;;5.78;79.19;100345.59;1636036;84;25954;-75
2021/05/03 05:28:04;;;;;;;4.30;3.37;;;;;;;5.76;79.06;100351.08;1654497;85;25890;-76
2021/05/03 05:30:31;;;;;;;6.72;3.15;;;;;;;5.81;79.61;100350.10;1661702;84;26282;-75
2021/05/03 05:32:59;;;;;;;6.65;3.58;;;;;;;5.87;79.36;100345.50;1676196;85;26386;-75
2021/05/03 05:35:26;;;;;;;5.47;3.77;;;;;;;5.92;79.27;100347.14;1632337;85;27573;-76
2021/05/03 05:37:53;;;;;;;7.28;4.22;;;;;;;5.96;79.15;100342.36;1632379;85;25872;-75
2021/05/03 05:40:21;;;;;;;5.75;3.42;;;;;;;6.01;79.00;100340.02;1644526;86;26386;-76
2021/05/03 05:42:48;;;;;;;6.12;3.20;;;;;;;6.07;79.72;100350.83;1683516;84;25816;-76
2021/05/03 05:45:16;;;;;;;7.37;3.55;;;;;;;6.15;79.24;100349.54;1643942;85;26266;-74
2021/05/03 05:47:43;;;;;;;6.10;4.15;;;;;;;6.19;79.27;100354.02;1675364;84;26867;-77
2021/05/03 05:50:11;;;;;;;4.85;3.10;;;;;;;6.28;78.97;100356.19;1632486;85;26438;-75
2021/05/03 05:52:38;;;;;;;6.58;3.27;;;;;;;6.34;79.26;100357.69;1648457;86;26460;-76
2021/05/03 05:55:06;;;;;;;6.35;3.10;;;;;;;6.42;79.49;100359.02;1617263;86;26272;-76
2021/05/03 05:57:34;;;;;;;4.95;3.08;;;;;;;6.51;78.80;100363.35;1633261;85;25820;-75
2021/05/03 06:00:01;;;;;;;6.33;2.58;;;;;;;6.53;78.16;100363.17;1665706;84;27313;-75
2021/05/03 06:02:28;;;;;;;4.78;2.80;;;;;;;6.49;77.39;100357.86;1675934;85;25873;-75
2021/05/03 06:04:56;;;;;;;5.78;3.08;;;;;;;6.44;77.43;100370.33;1652180;85;26100;-75
2021/05/03 06:07:23;;;;;;;3.77;2.55;;;;;;;6.42;78.13;100380.30;1696608;83;25851;-76
2021/05/03 06:09:50;;;;;;;6.28;3.12;;;;;;;6.44;78.14;100382.30;1699037;83;25771;-75
2021/05/03 06:12:18;;;;;;;7.22;3.40;;;;;;;6.47;78.35;100384.64;1719962;83;27758;-76
2021/05/03 06:14:45;;;;;;;7.05;3.25;;;;;;;6.51;78.08;100385.97;1689503;83;25370;-75
2021/05/03 06:17:15;;;;;;;6.17;3.70;;;;;;;6.54;78.02;100388.31;1698722;83;25833;-75
2021/05/03 06:19:42;;;;;;;5.03;3.08;;;;;;;6.57;77.75;100393.77;1678579;84;26011;-77
2021/05/03 06:22:09;;;;;;;6.53;3.50;;;;;;;6.60;77.47;100406.27;1699500;83;25756;-76
2021/05/03 06:24:37;;;;;;;4.87;3.20;;;;;;;6.59;76.69;100409.07;1696007;83;28445;-75
2021/05/03 06:27:05;;;;;;;3.22;2.30;;;;;;;6.62;76.87;100404.27;1695880;83;25853;-75
2021/05/03 06:29:32;;;;;;;7.00;3.27;;;;;;;6.61;74.93;100412.40;1668620;83;25840;-75
2021/05/03 06:32:00;;;;;;;5.28;3.00;;;;;;;6.54;75.49;100411.42;1716602;83;26490;-75
2021/05/03 06:34:29;;;;;;;6.75;3.20;;;;;;;6.51;74.69;100408.59;1663856;83;25783;-75
2021/05/03 06:36:57;;;;;;;5.22;3.00;;;;;;;6.53;75.59;100415.91;1698213;83;27537;-75
2021/05/03 06:39:25;;;;;;;6.80;3.22;;;;;;;6.60;76.19;100420.06;1721148;83;25922;-77
2021/05/03 06:41:53;;;;;;;10.25;3.50;;;;;;;6.66;76.14;100418.91;1693708;83;25799;-75
2021/05/03 06:44:21;;;;;;;5.60;3.20;;;;;;;6.74;75.69;100423.38;1703699;83;26168;-75
2021/05/03 06:46:48;;;;;;;4.90;3.17;;;;;;;6.77;75.52;100426.56;1678206;83;25818;-75
2021/05/03 06:49:16;;;;;;;4.72;3.02;;;;;;;6.79;74.86;100435.22;1721825;82;27540;-76
2021/05/03 06:51:45;;;;;;;5.75;2.92;;;;;;;6.82;74.67;100432.73;1694821;84;25911;-75
2021/05/03 06:54:12;;;;;;;4.47;2.83;;;;;;;6.88;74.07;100432.05;1674734;84;25879;-75
2021/05/03 06:56:39;;;;;;;4.90;2.80;;;;;;;6.86;72.40;100423.41;1674785;84;25810;-75
2021/05/03 06:59:06;;;;;;;7.20;3.62;;;;;;;6.92;72.52;100430.72;1695025;84;26060;-75
2021/05/03 07:01:34;;;;;;;4.20;2.25;;;;;;;7.05;72.38;100424.38;1635676;85;27538;-75
2021/05/03 07:04:02;;;;;;;4.42;2.72;;;;;;;7.17;70.73;100424.84;1615715;87;25862;-75
2021/05/03 07:06:30;;;;;;;6.12;2.60;;;;;;;7.28;72.18;100428.00;1642059;86;25826;-75
2021/05/03 07:08:58;;;;;;;4.55;2.40;;;;;;;7.43;71.94;100426.31;1651008;86;26480;-76
2021/05/03 07:11:28;;;;;;;3.55;1.92;;;;;;;7.54;68.99;100435.77;1619871;86;26326;-75
2021/05/03 07:13:55;;;;;;;2.85;2.25;;;;;;;7.53;67.27;100435.42;1675356;84;28526;-75
2021/05/03 07:16:23;;;;;;;3.20;1.70;;;;;;;7.51;67.45;100436.94;1674756;84;25891;-75
2021/05/03 07:18:50;;;;;;;3.17;2.05;;;;;;;7.55;67.14;100438.75;1666548;85;26412;-75
2021/05/03 07:21:18;;;;;;;2.05;1.50;;;;;;;7.59;67.95;100438.23;1594305;87;26420;-74
2021/05/03 07:23:48;;;;;;;1.87;1.70;;;;;;;7.65;66.32;100439.41;1639714;86;25810;-74
2021/05/03 07:26:14;;;;;;;4.03;1.80;;;;;;;7.67;64.79;100438.23;1670589;84;29432;-75
2021/05/03 07:28:42;;;;;;;2.65;1.77;;;;;;;7.73;66.35;100443.37;1661241;86;26251;-74
2021/05/03 07:31:09;;;;;;;2.20;1.47;;;;;;;7.79;66.90;100459.52;1628888;85;26487;-75
2021/05/03 07:33:36;;;;;;;1.62;1.10;;;;;;;7.82;66.02;100452.17;1632006;85;26384;-74
2021/05/03 07:36:05;;;;;;;2.25;1.20;;;;;;;7.78;60.78;100452.50;1653795;85;25851;-76
2021/05/03 07:38:33;;;;;;;1.98;1.30;;;;;;;7.79;62.38;100458.17;1678117;85;28452;-74
2021/05/03 07:41:00;;;;;;;3.72;1.72;;;;;;;7.78;61.47;100465.02;1596399;86;26460;-75
2021/05/03 07:43:28;;;;;;;1.32;1.22;;;;;;;7.75;60.61;100458.69;1633026;85;26258;-74
2021/05/03 07:45:55;;;;;;;3.12;1.65;;;;;;;7.74;62.24;100470.38;1640229;86;25887;-76
2021/05/03 07:48:22;;;;;;;2.72;2.00;;;;;;;7.73;63.23;100468.20;1661847;86;26529;-75
2021/05/03 07:50:49;;;;;;;4.42;1.45;;;;;;;7.73;62.13;100481.53;1655084;85;27494;-75
2021/05/03 07:53:17;;;;;;;3.65;1.80;;;;;;;7.75;63.36;100478.69;1618765;86;25805;-76
2021/05/03 07:55:45;;;;;;;5.10;1.85;;;;;;;7.86;64.30;100485.48;1701895;83;26414;-76
2021/05/03 07:58:12;;;;;;;2.75;1.67;;;;;;;7.94;64.02;100490.28;1662069;86;26434;-76
2021/05/03 08:00:40;;;;;;;3.20;1.85;;;;;;;7.94;63.21;100491.62;1677755;83;25928;-75
2021/05/03 08:03:07;;;;;;;3.85;2.10;;;;;;;7.94;63.62;100502.28;1623856;85;28286;-75
2021/05/03 08:05:34;;;;;;;3.22;1.75;;;;;;;7.96;63.46;100492.27;1649626;85;25916;-75
2021/05/03 08:08:03;;;;;;;3.30;1.90;;;;;;;8.05;62.71;100503.75;1666653;85;25800;-78
2021/05/03 08:10:31;;;;;;;5.83;2.00;;;;;;;8.14;63.36;100508.05;1617800;84;26501;-76
2021/05/03 08:12:58;;;;;;;4.12;1.70;;;;;;;8.22;61.80;100502.17;1663675;84;25915;-75
2021/05/03 08:15:25;;;;;;;4.55;1.95;;;;;;;8.32;62.79;100507.31;1659741;84;27457;-76
2021/05/03 08:17:53;;;;;;;5.70;2.20;;;;;;;8.41;63.92;100493.77;1684743;84;25836;-74
2021/05/03 08:20:20;;;;;;;1.85;1.70;;;;;;;8.49;63.31;100507.06;1685616;81;25767;-76
2021/05/03 08:22:48;;;;;;;2.85;2.10;;;;;;;8.53;63.94;100513.71;1689461;82;26498;-76
2021/05/03 08:25:15;;;;;;;2.98;1.80;;;;;;;8.60;63.40;100508.50;1737177;81;25765;-76
2021/05/03 08:27:43;;;;;;;3.00;1.87;;;;;;;8.70;63.72;100521.14;1732875;82;27545;-76
2021/05/03 08:30:12;;;;;;;6.12;2.47;;;;;;;8.75;62.41;100524.59;1665237;82;25837;-76
2021/05/03 08:32:41;;;;;;;1.50;1.40;;;;;;;8.77;62.01;100530.09;1671299;84;26585;-76
2021/05/03 08:35:10;;;;;;;1.90;1.57;;;;;;;8.79;61.58;100532.61;1674706;84;26260;-76
2021/05/03 08:37:37;;;;;;;7.20;2.42;;;;;;;8.75;61.53;100537.95;1664997;85;26431;-76
2021/05/03 08:40:06;;;;;;;4.12;1.52;;;;;;;8.76;62.10;100536.45;1638580;85;27548;-75
2021/05/03 08:42:33;;;;;;;3.17;1.77;;;;;;;8.85;61.39;100535.90;1655585;85;25921;-76
2021/05/03 08:45:02;;;;;;;3.98;1.60;;;;;;;8.82;60.92;100536.24;1669007;84;26126;-76
2021/05/03 08:47:34;;;;;;;4.83;1.40;;;;;;;8.81;60.65;100542.08;1686169;84;25780;-77
2021/05/03 08:50:08;;;;;;;2.98;1.50;;;;;;;8.76;59.31;100539.13;1648803;84;26466;-75
2021/05/03 08:52:40;;;;;;;5.22;1.85;;;;;;;8.72;61.48;100536.48;1666606;84;28301;-76
2021/05/03 08:54:59;;;;;;;3.08;1.87;;;;;;;8.76;61.63;100536.95;1676625;84;25914;-75
2021/05/03 08:57:26;;;;;;;2.27;1.70;;;;;;;8.79;61.10;100537.95;1688966;84;25929;-76
2021/05/03 08:59:53;;;;;;;3.00;1.80;;;;;;;8.76;62.03;100540.47;1652030;84;26416;-76
2021/05/03 09:02:22;;;;;;;2.40;1.82;;;;;;;8.78;62.37;100548.29;1678148;84;25798;-75
2021/05/03 09:04:49;;;;;;;3.45;2.42;;;;;;;8.86;63.20;100547.73;1672271;83;28243;-75
2021/05/03 09:07:20;;;;;;;2.25;2.05;;;;;;;8.96;62.19;100551.00;1690150;83;25887;-75
2021/05/03 09:09:51;;;;;;;4.35;2.02;;;;;;;9.03;61.56;100552.45;1623344;84;32800;-74
2021/05/03 09:12:23;;;;;;;2.40;2.20;;;;;;;9.05;61.23;100556.62;1615590;86;25843;-75
2021/05/03 09:15:04;;;;;;;3.37;2.37;;;;;;;9.05;60.99;100555.28;1602870;87;26489;-75
2021/05/03 09:17:38;;;;;;;5.28;2.15;;;;;;;9.02;60.70;100548.98;1649915;86;28290;-75
2021/05/03 09:20:19;;;;;;;6.08;2.40;;;;;;;9.06;61.38;100553.45;1635077;86;25797;-75
2021/05/03 09:22:55;;;;;;;3.20;1.90;;;;;;;9.09;61.30;100555.74;1609370;87;25743;-75
2021/05/03 09:25:35;;;;;;;2.10;1.87;;;;;;;9.12;61.25;100560.25;1648344;86;25421;-75
2021/05/03 09:28:20;;;;;;;;;;;;;;;9.15;61.79;100557.73;1683265;84;26081;-75
2021/05/03 09:30:59;;;;;;;2.98;2.02;;;;;;;9.25;60.58;100555.14;1636446;87;28439;-75
2021/05/03 09:33:35;;;;;;;1.55;1.45;;;;;;;9.27;61.56;100556.29;1606760;87;26524;-74
2021/05/03 09:36:12;;;;;;;2.47;2.02;;;;;;;9.27;61.02;100549.11;1669364;84;25883;-75
2021/05/03 09:38:48;;;;;;;2.72;1.40;;;;;;;9.31;61.63;100557.59;1689981;84;26367;-74
2021/05/03 09:41:28;;;;;;;2.33;1.47;;;;;;;9.37;59.32;100564.08;1635901;84;26156;-74
2021/05/03 09:44:08;;;;;;;3.20;2.10;;;;;;;9.42;61.23;100569.20;1609492;87;27540;-74
2021/05/03 09:46:48;;;;;;;2.92;2.30;;;;;;;9.46;61.00;100566.48;1686792;84;25768;-75
2021/05/03 09:49:19;;;;;;;2.37;1.67;;;;;;;9.48;61.77;100564.96;1671250;84;25956;-74
2021/05/03 09:51:49;;;;;;;;;;;;;;;9.52;61.65;100555.06;1654507;83;26013;-74
2021/05/03 09:54:29;;;;;;;3.25;1.80;;;;;;;9.61;61.95;100563.34;1713636;82;26266;-74
2021/05/03 09:59:48;;;;;;;2.65;1.62;;;;;;;9.64;59.49;100568.34;1819955;77;25614;-74
2021/05/03 10:02:27;;;;;;;2.35;1.70;;;;;;;9.70;60.30;100557.41;1748898;80;26091;-75
2021/05/03 10:05:10;;;;;;;2.00;1.42;;;;;;;9.83;58.94;100556.28;1754656;80;28368;-74
2021/05/03 10:07:39;;;;;;;3.98;1.45;;;;;;;9.81;59.33;100566.34;1703082;80;26040;-74
2021/05/03 10:12:47;;;;;;;1.90;1.70;;;;;;;9.70;57.46;100566.77;1825444;77;25675;-75
2021/05/03 10:15:17;;;;;;;4.35;1.50;;;;;;;9.63;59.35;100569.34;1787725;78;25735;-76
2021/05/03 10:17:45;;;;;;;3.33;1.80;;;;;;;9.66;60.17;100568.16;1694772;81;27348;-75
2021/05/03 10:20:19;;;;;;;3.52;1.47;;;;;;;9.61;58.10;100578.55;1726199;81;25776;-75
2021/05/03 10:22:56;;;;;;;1.85;1.37;;;;;;;9.44;58.20;100582.38;1710419;81;25573;-74
2021/05/03 10:25:23;;;;;;;2.33;1.62;;;;;;;9.31;59.20;100582.98;1717166;81;26044;-74
2021/05/03 10:27:53;;;;;;;2.98;1.75;;;;;;;9.21;59.92;100581.06;1722288;81;25940;-74
2021/05/03 10:30:26;;;;;;;3.83;1.90;;;;;;;9.19;60.60;100576.41;1741371;81;27609;-74
2021/05/03 10:33:04;;;;;;;2.60;2.00;;;;;;;9.12;59.87;100588.80;1701584;82;25826;-74
2021/05/03 10:35:36;;;;;;;3.40;2.10;;;;;;;9.06;59.95;100593.03;1743601;81;25932;-75
2021/05/03 10:38:03;;;;;;;5.12;2.00;;;;;;;9.01;60.30;100594.55;1715802;81;25926;-74
2021/05/03 10:40:41;;;;;;;4.30;2.25;;;;;;;8.97;59.88;100590.57;1739060;81;26109;-74
2021/05/03 10:43:13;;;;;;;1.98;1.67;;;;;;;8.91;60.18;100586.78;1720459;81;28727;-74
2021/05/03 10:51:44;;;;;;;2.77;1.85;;;;;;;9.19;59.93;100595.11;1822797;77;25686;-74
2021/05/03 10:56:59;;;;;;;3.02;1.80;;;;;;;9.12;58.50;100596.33;1772472;78;27351;-74
2021/05/03 10:59:43;;;;;;;4.22;1.90;;;;;;;9.17;57.62;100599.28;1799613;78;25681;-74
2021/05/03 11:02:13;;;;;;;4.80;1.90;;;;;;;9.23;60.22;100591.91;1719121;80;25953;-75
2021/05/03 11:05:29;;;;;;;3.00;2.15;;;;;;;9.39;60.11;100588.79;1720061;81;25772;-74
2021/05/03 11:08:11;;;;;;;4.00;1.85;;;;;;;9.43;60.09;100596.24;1680977;82;26340;-73
2021/05/03 11:13:46;;;;;;;5.17;2.83;;;;;;;9.54;59.43;100589.67;1784637;79;25747;-73
2021/05/03 11:23:04;;;;;;;4.80;3.30;;;;;;;9.33;59.96;100599.17;1726522;81;26486;-74
2021/05/03 11:25:34;;;;;;;6.15;4.47;;;;;;;9.20;58.57;100598.94;1702244;82;27118;-74
2021/05/03 11:28:20;;;;;;;7.37;3.45;;;;;;;9.09;59.75;100598.00;1674758;84;26417;-74
2021/05/03 11:30:51;;;;;;;3.85;3.22;;;;;;;9.05;60.31;100607.38;1652853;84;25812;-74
2021/05/03 11:33:18;;;;;;;5.65;3.95;;;;;;;9.09;60.93;100615.38;1691975;83;25897;-74
2021/05/03 11:36:02;;;;;;;6.90;3.80;;;;;;;9.16;59.91;100605.64;1690693;83;25839;-74
2021/05/03 11:38:31;;;;;;;6.90;4.03;;;;;;;9.23;60.33;100613.29;1670764;84;28947;-74
2021/05/03 11:41:22;;;;;;;8.20;5.45;;;;;;;9.25;60.67;100613.94;1630762;84;25933;-75
2021/05/03 11:46:25;;;;;;;5.70;4.50;;;;;;;9.25;61.40;100613.11;1696158;83;25983;-73
2021/05/03 11:48:48;;;;;;;8.95;5.20;;;;;;;9.24;61.84;100619.44;1694604;83;25923;-74
2021/05/03 11:51:15;;;;;;;9.25;5.10;;;;;;;9.21;62.14;100611.30;1677018;84;28442;-73
2021/05/03 11:53:44;;;;;;;9.03;5.67;;;;;;;9.21;62.19;100615.31;1653502;84;25889;-74
2021/05/03 11:56:22;;;;;;;8.38;5.40;;;;;;;9.24;63.25;100619.44;1671923;83;25925;-74
2021/05/03 11:58:58;;;;;;;5.37;4.20;;;;;;;9.37;63.80;100615.67;1699764;83;25347;-74
2021/05/03 12:01:30;;;;;;;8.20;5.97;;;;;;;9.49;63.25;100615.61;1626666;84;26004;-74
2021/05/03 12:03:59;;;;;;;8.18;5.40;;;;;;;9.56;63.12;100621.06;1674669;83;27541;-74
2021/05/03 12:06:42;;;;;;;7.95;6.12;;;;;;;9.59;63.30;100611.33;1668042;83;25879;-73
2021/05/03 12:09:13;;;;;;;8.03;5.95;;;;;;;9.60;63.36;100610.34;1696482;83;25786;-73
2021/05/03 12:11:56;;;;;;;8.50;6.17;;;;;;;9.60;63.69;100612.48;1655971;83;25899;-74
2021/05/03 12:14:40;;;;;;;11.70;6.80;;;;;;;9.59;63.67;100611.33;1675183;83;25910;-74
2021/05/03 12:17:25;;;;;;;6.55;5.85;;;;;;;9.52;63.77;100621.08;1694380;83;26672;-75
2021/05/03 12:19:56;;;;;;;7.00;5.53;;;;;;;9.48;64.78;100631.30;1709006;83;26485;-74
2021/05/03 12:22:24;;;;;;;;;;;;;;;9.44;64.98;100634.52;1659282;83;25449;-74
2021/05/03 12:24:56;;;;;;;7.78;5.65;;;;;;;9.40;65.10;100626.02;1656325;84;26511;-74
2021/05/03 12:27:30;;;;;;;8.13;5.72;;;;;;;9.20;65.16;100649.71;1706914;83;26493;-75